createdAt,value
2023-04-14T00:00:33.327Z,5.43
2023-04-14T00:03:02.258Z,4.30
2023-04-14T00:05:30.997Z,3.40
2023-04-14T00:07:59.311Z,2.53
2023-04-14T00:10:29.076Z,2.73
2023-04-14T00:12:56.823Z,4.33
2023-04-14T00:15:24.531Z,5.17
2023-04-14T00:17:53.047Z,4.07
2023-04-14T00:20:20.987Z,3.07
2023-04-14T00:22:48.954Z,3.47
2023-04-14T00:25:16.950Z,7.17
2023-04-14T00:27:46.025Z,2.43
2023-04-14T00:30:15.600Z,4.80
2023-04-14T00:32:43.310Z,4.20
2023-04-14T00:35:11.026Z,2.80
2023-04-14T00:37:38.757Z,2.60
2023-04-14T00:40:11.024Z,3.40
2023-04-14T00:42:44.040Z,4.87
2023-04-14T00:45:14.626Z,4.40
2023-04-14T00:47:46.915Z,3.13
2023-04-14T00:50:16.335Z,4.97
2023-04-14T00:52:47.040Z,4.07
2023-04-14T00:55:16.435Z,3.53
2023-04-14T00:57:44.787Z,4.10
2023-04-14T01:00:15.699Z,5.00
2023-04-14T01:02:44.097Z,6.53
2023-04-14T01:05:12.287Z,4.27
2023-04-14T01:07:40.661Z,5.50
2023-04-14T01:10:11.326Z,3.80
2023-04-14T01:12:58.641Z,4.37
2023-04-14T01:15:32.929Z,6.00
2023-04-14T01:18:08.892Z,4.67
2023-04-14T01:20:41.826Z,3.83
2023-04-14T01:23:12.586Z,4.60
2023-04-14T01:26:11.660Z,4.93
2023-04-14T01:28:58.795Z,6.57
2023-04-14T01:31:31.479Z,4.20
2023-04-14T01:34:07.361Z,4.87
2023-04-14T01:36:41.833Z,6.10
2023-04-14T01:39:12.453Z,5.83
2023-04-14T01:41:44.073Z,6.53
2023-04-14T01:44:13.974Z,5.17
2023-04-14T01:46:45.629Z,5.00
2023-04-14T01:49:14.302Z,7.77
2023-04-14T01:51:44.401Z,6.30
2023-04-14T01:54:14.218Z,7.00
2023-04-14T01:56:43.971Z,10.03
2023-04-14T01:59:13.366Z,7.70
2023-04-14T02:01:43.897Z,6.70
2023-04-14T02:04:12.826Z,7.67
2023-04-14T02:06:41.923Z,7.03
2023-04-14T02:09:13.106Z,9.80
2023-04-14T02:11:42.578Z,9.77
2023-04-14T02:14:11.990Z,10.43
2023-04-14T02:16:41.033Z,11.83
2023-04-14T02:19:10.741Z,9.50
2023-04-14T02:21:40.099Z,14.67
2023-04-14T02:24:08.569Z,11.37
2023-04-14T02:26:42.203Z,13.83
2023-04-14T02:29:13.034Z,10.40
2023-04-14T02:31:44.512Z,9.33
2023-04-14T02:34:18.294Z,9.33
2023-04-14T02:36:53.281Z,7.20
2023-04-14T02:39:27.351Z,7.23
2023-04-14T02:42:01.524Z,9.60
2023-04-14T02:44:33.361Z,9.27
2023-04-14T02:47:07.527Z,7.63
2023-04-14T02:49:44.340Z,8.67
2023-04-14T02:52:14.987Z,9.73
2023-04-14T02:54:45.125Z,8.03
2023-04-14T02:57:16.087Z,9.80
2023-04-14T02:59:47.925Z,9.67
2023-04-14T03:02:18.566Z,6.77
2023-04-14T03:04:54.298Z,7.30
2023-04-14T03:07:32.079Z,9.37
2023-04-14T03:10:01.448Z,7.17
2023-04-14T03:12:30.503Z,12.53
2023-04-14T03:15:00.490Z,4.97
2023-04-14T03:17:29.451Z,7.43
2023-04-14T03:20:00.245Z,6.47
2023-04-14T03:22:29.146Z,8.73
2023-04-14T03:24:58.774Z,6.53
2023-04-14T03:27:31.526Z,4.97
2023-04-14T03:30:04.165Z,6.50
2023-04-14T03:32:41.605Z,4.83
2023-04-14T03:35:15.397Z,4.87
2023-04-14T03:37:44.088Z,5.17
2023-04-14T03:40:15.086Z,4.93
2023-04-14T03:42:47.235Z,7.60
2023-04-14T03:45:21.094Z,6.40
2023-04-14T03:47:49.566Z,5.67
2023-04-14T03:50:21.143Z,6.23
2023-04-14T03:52:51.758Z,5.80
2023-04-14T03:55:20.426Z,7.90
2023-04-14T03:57:50.592Z,7.00
2023-04-14T04:00:21.016Z,5.57
2023-04-14T04:02:50.830Z,6.43
2023-04-14T04:05:22.036Z,8.50
2023-04-14T04:07:51.367Z,5.13
2023-04-14T04:10:21.156Z,5.03
2023-04-14T04:12:50.610Z,5.53
2023-04-14T04:15:18.466Z,5.33
2023-04-14T04:17:50.241Z,6.43
2023-04-14T04:20:21.919Z,9.10
2023-04-14T04:22:52.987Z,4.00
2023-04-14T04:25:21.509Z,6.33
2023-04-14T04:28:05.181Z,4.27
2023-04-14T04:30:33.615Z,6.90
2023-04-14T04:33:03.445Z,5.97
2023-04-14T04:35:33.248Z,5.30
2023-04-14T04:38:01.946Z,4.17
2023-04-14T04:40:36.980Z,3.83
2023-04-14T04:43:05.729Z,6.23
2023-04-14T04:45:46.884Z,5.37
2023-04-14T04:48:14.774Z,5.03
2023-04-14T04:50:46.386Z,5.77
2023-04-14T04:53:14.284Z,6.10
2023-04-14T04:55:42.936Z,7.83
2023-04-14T04:58:11.178Z,5.73
2023-04-14T05:00:38.974Z,6.03
2023-04-14T05:03:06.891Z,5.20
2023-04-14T05:05:36.623Z,6.87
2023-04-14T05:08:07.658Z,7.20
2023-04-14T05:10:36.534Z,8.07
2023-04-14T05:13:04.547Z,6.33
2023-04-14T05:15:32.366Z,5.47
2023-04-14T05:18:01.659Z,8.90
2023-04-14T05:20:29.760Z,7.63
2023-04-14T05:22:57.502Z,8.40
2023-04-14T05:25:26.647Z,9.57
2023-04-14T05:27:54.345Z,6.40
2023-04-14T05:30:22.118Z,7.17
2023-04-14T05:32:50.427Z,6.40
2023-04-14T05:35:18.267Z,4.37
2023-04-14T05:37:45.979Z,5.20
2023-04-14T05:40:14.189Z,7.23
2023-04-14T05:42:43.329Z,4.73
2023-04-14T05:45:11.700Z,8.07
2023-04-14T05:47:39.735Z,5.80
2023-04-14T05:50:08.975Z,3.27
2023-04-14T05:52:36.662Z,4.87
2023-04-14T05:55:04.482Z,6.83
2023-04-14T05:57:32.258Z,6.53
2023-04-14T06:00:01.510Z,5.80
2023-04-14T06:02:40.859Z,5.40
2023-04-14T06:05:09.949Z,9.63
2023-04-14T06:07:38.355Z,4.87
2023-04-14T06:10:07.177Z,5.90
2023-04-14T06:12:35.037Z,10.30
2023-04-14T06:15:05.190Z,10.70
2023-04-14T06:17:33.272Z,6.27
2023-04-14T06:20:01.272Z,8.43
2023-04-14T06:22:29.938Z,11.27
2023-04-14T06:24:58.234Z,8.97
2023-04-14T06:27:27.018Z,5.07
2023-04-14T06:29:55.098Z,9.43
2023-04-14T06:32:24.275Z,10.47
2023-04-14T06:34:53.397Z,7.47
2023-04-14T06:37:21.647Z,6.90
2023-04-14T06:39:52.198Z,6.47
2023-04-14T06:42:19.964Z,6.70
2023-04-14T06:44:49.302Z,7.33
2023-04-14T06:47:19.824Z,7.57
2023-04-14T06:49:49.054Z,5.43
2023-04-14T06:52:16.733Z,7.50
2023-04-14T06:54:44.537Z,11.37
2023-04-14T06:57:12.253Z,7.50
2023-04-14T06:59:40.853Z,11.60
2023-04-14T07:02:08.786Z,6.73
2023-04-14T07:04:37.489Z,6.23
2023-04-14T07:07:06.621Z,10.33
2023-04-14T07:09:34.873Z,6.93
2023-04-14T07:12:02.847Z,6.50
2023-04-14T07:14:32.501Z,6.93
2023-04-14T07:17:01.466Z,8.73
2023-04-14T07:19:29.416Z,7.23
2023-04-14T07:21:57.358Z,8.27
2023-04-14T07:24:26.672Z,11.50
2023-04-14T07:26:54.590Z,8.63
2023-04-14T07:29:22.284Z,9.23
2023-04-14T07:31:50.069Z,7.43
2023-04-14T07:34:18.226Z,10.77
2023-04-14T07:36:46.094Z,7.60
2023-04-14T07:39:13.885Z,10.43
2023-04-14T07:41:43.036Z,8.27
2023-04-14T07:44:10.732Z,10.30
2023-04-14T07:46:38.613Z,9.53
2023-04-14T07:49:06.570Z,8.43
2023-04-14T07:51:34.352Z,10.23
2023-04-14T07:54:02.474Z,9.67
2023-04-14T07:56:32.979Z,10.40
2023-04-14T07:59:03.755Z,9.37
2023-04-14T08:01:31.698Z,8.67
2023-04-14T08:03:59.666Z,7.93
2023-04-14T08:06:28.145Z,11.47
2023-04-14T08:08:55.914Z,9.77
2023-04-14T08:11:23.985Z,7.73
2023-04-14T08:13:52.924Z,8.50
2023-04-14T08:16:22.708Z,6.67
2023-04-14T08:18:50.657Z,6.43
2023-04-14T08:21:20.884Z,7.10
2023-04-14T08:23:48.659Z,8.00
2023-04-14T08:26:16.410Z,9.97
2023-04-14T08:28:44.084Z,8.20
2023-04-14T08:31:11.962Z,7.47
2023-04-14T08:33:41.151Z,7.47
2023-04-14T08:36:09.676Z,6.63
2023-04-14T08:38:40.633Z,6.63
2023-04-14T08:41:09.526Z,6.17
2023-04-14T08:43:37.872Z,9.10
2023-04-14T08:46:06.091Z,9.87
2023-04-14T08:48:36.863Z,6.33
2023-04-14T08:51:11.252Z,7.23
2023-04-14T08:53:47.280Z,5.70
2023-04-14T08:56:19.148Z,6.80
2023-04-14T08:58:47.642Z,9.13
2023-04-14T09:01:15.930Z,6.53
2023-04-14T09:03:44.767Z,9.27
2023-04-14T09:06:15.178Z,10.17
2023-04-14T09:08:45.795Z,6.37
2023-04-14T09:11:16.674Z,8.67
2023-04-14T09:13:45.598Z,8.93
2023-04-14T09:16:14.241Z,5.23
2023-04-14T09:18:42.295Z,5.80
2023-04-14T09:21:50.759Z,7.27
2023-04-14T09:24:01.068Z,8.00
2023-04-14T09:26:30.171Z,7.50
2023-04-14T09:28:58.678Z,6.90
2023-04-14T09:31:27.084Z,6.80
2023-04-14T09:33:54.821Z,5.97
2023-04-14T09:36:23.859Z,4.30
2023-04-14T09:38:53.018Z,7.47
2023-04-14T09:41:23.718Z,5.83
2023-04-14T09:43:52.671Z,4.47
2023-04-14T09:46:20.635Z,6.83
2023-04-14T09:48:53.137Z,5.43
2023-04-14T09:51:23.793Z,7.17
2023-04-14T09:53:54.024Z,4.83
2023-04-14T09:56:28.333Z,5.83
2023-04-14T09:58:59.851Z,4.53
2023-04-14T10:01:31.235Z,4.53
2023-04-14T10:04:01.172Z,4.80
2023-04-14T10:06:28.988Z,7.67
2023-04-14T10:08:57.291Z,6.40
2023-04-14T10:11:29.361Z,5.33
2023-04-14T10:13:58.423Z,4.17
2023-04-14T10:16:27.287Z,5.10
2023-04-14T10:18:57.563Z,3.07
2023-04-14T10:21:26.042Z,4.13
2023-04-14T10:23:56.444Z,5.40
2023-04-14T10:26:24.320Z,4.80
2023-04-14T10:28:55.707Z,4.67
2023-04-14T10:31:26.401Z,7.30
2023-04-14T10:33:54.513Z,6.63
2023-04-14T10:36:26.458Z,3.30
2023-04-14T10:39:02.006Z,4.43
2023-04-14T10:41:45.399Z,3.70
2023-04-14T10:44:24.952Z,6.70
2023-04-14T10:46:54.109Z,4.87
2023-04-14T10:49:26.033Z,4.20
2023-04-14T10:51:53.761Z,5.53
2023-04-14T10:54:21.825Z,9.47
2023-04-14T10:57:12.347Z,5.93
2023-04-14T10:59:47.390Z,4.93
2023-04-14T11:02:26.462Z,4.07
2023-04-14T11:05:05.830Z,6.73
2023-04-14T11:07:40.498Z,5.57
2023-04-14T11:10:28.840Z,4.13
2023-04-14T11:12:58.539Z,4.32
2023-04-14T11:15:44.258Z,9.47
2023-04-14T11:18:14.043Z,3.67
2023-04-14T11:20:42.617Z,5.90
2023-04-14T11:23:10.978Z,3.63
2023-04-14T11:25:40.379Z,4.53
2023-04-14T11:28:08.810Z,3.78
2023-04-14T11:30:37.949Z,4.25
2023-04-14T11:33:06.679Z,3.53
2023-04-14T11:35:35.067Z,5.43
2023-04-14T11:38:04.053Z,1.70
2023-04-14T11:40:31.850Z,4.20
2023-04-14T11:43:00.846Z,3.40
2023-04-14T11:45:29.862Z,2.83
2023-04-14T11:48:00.224Z,3.47
2023-04-14T11:50:31.128Z,3.20
2023-04-14T11:53:00.315Z,3.45
2023-04-14T11:55:28.534Z,3.70
2023-04-14T11:57:57.035Z,3.58
2023-04-14T12:00:25.483Z,3.42
2023-04-14T12:02:53.622Z,3.28
2023-04-14T12:05:30.241Z,3.03
2023-04-14T12:08:00.770Z,5.72
2023-04-14T12:10:29.215Z,3.55
2023-04-14T12:13:01.529Z,2.77
2023-04-14T12:15:30.406Z,3.20
2023-04-14T12:17:59.061Z,2.00
2023-04-14T12:20:30.260Z,1.75
2023-04-14T12:23:02.838Z,2.10
2023-04-14T12:25:32.997Z,3.92
2023-04-14T12:28:02.517Z,4.50
2023-04-14T12:30:30.394Z,2.15
2023-04-14T12:32:58.252Z,3.35
2023-04-14T12:35:26.130Z,8.80
2023-04-14T12:37:55.243Z,2.20
2023-04-14T12:40:40.921Z,2.95
2023-04-14T12:43:08.926Z,0.80
2023-04-14T12:45:44.314Z,3.10
2023-04-14T12:48:13.258Z,2.80
2023-04-14T12:50:41.399Z,3.38
2023-04-14T12:53:27.078Z,1.88
2023-04-14T12:56:10.459Z,2.88
2023-04-14T12:58:40.180Z,1.77
2023-04-14T13:01:08.299Z,3.65
2023-04-14T13:03:55.770Z,2.17
2023-04-14T13:06:25.271Z,1.90
2023-04-14T13:08:56.012Z,2.85
2023-04-14T13:11:24.878Z,3.33
2023-04-14T13:13:53.330Z,4.90
2023-04-14T13:16:22.116Z,1.30
2023-04-14T13:18:50.421Z,2.35
2023-04-14T13:21:18.188Z,2.92
2023-04-14T13:23:46.097Z,3.33
2023-04-14T13:26:15.444Z,2.58
2023-04-14T13:28:43.203Z,2.55
2023-04-14T13:31:13.020Z,2.70
2023-04-14T13:33:40.756Z,2.70
2023-04-14T13:36:09.109Z,2.22
2023-04-14T13:38:36.845Z,1.58
2023-04-14T13:41:04.629Z,2.75
2023-04-14T13:43:34.810Z,4.07
2023-04-14T13:46:03.105Z,3.90
2023-04-14T13:48:31.967Z,4.72
2023-04-14T13:51:00.001Z,3.92
2023-04-14T13:53:27.783Z,3.38
2023-04-14T13:55:55.590Z,3.42
2023-04-14T13:58:25.303Z,2.65
2023-04-14T14:00:55.337Z,3.67
2023-04-14T14:03:23.736Z,3.80
2023-04-14T14:05:51.708Z,2.50
2023-04-14T14:08:19.494Z,2.08
2023-04-14T14:10:47.209Z,2.88
2023-04-14T14:13:16.661Z,2.42
2023-04-14T14:15:46.164Z,3.88
2023-04-14T14:18:16.538Z,2.17
2023-04-14T14:20:45.640Z,1.42
2023-04-14T14:23:13.524Z,2.25
2023-04-14T14:25:41.803Z,2.88
2023-04-14T14:28:09.620Z,4.10
2023-04-14T14:30:37.397Z,3.03
2023-04-14T14:33:05.539Z,3.00
2023-04-14T14:35:34.669Z,2.92
2023-04-14T14:38:02.426Z,2.53
2023-04-14T14:40:30.874Z,3.25
2023-04-14T14:42:58.608Z,1.85
2023-04-14T14:45:30.416Z,1.77
2023-04-14T14:47:59.309Z,2.72
2023-04-14T14:50:27.251Z,3.35
2023-04-14T14:52:56.906Z,2.40
2023-04-14T14:55:24.698Z,2.88
2023-04-14T14:57:52.402Z,3.25
2023-04-14T15:00:20.513Z,2.47
2023-04-14T15:02:48.388Z,1.90
2023-04-14T15:05:16.301Z,2.65
2023-04-14T15:07:44.835Z,2.38
2023-04-14T15:10:14.382Z,4.25
2023-04-14T15:12:42.159Z,6.10
2023-04-14T15:15:10.543Z,4.28
2023-04-14T15:17:38.645Z,2.75
2023-04-14T15:20:08.330Z,2.65
2023-04-14T15:22:36.495Z,4.70
2023-04-14T15:25:04.416Z,4.50
2023-04-14T15:27:33.507Z,2.00
2023-04-14T15:30:01.405Z,1.67
2023-04-14T15:32:29.177Z,2.85
2023-04-14T15:34:57.189Z,2.25
2023-04-14T15:37:26.077Z,3.03
2023-04-14T15:39:53.778Z,2.05
2023-04-14T15:42:21.812Z,3.38
2023-04-14T15:44:51.756Z,2.38
2023-04-14T15:47:19.584Z,2.75
2023-04-14T15:49:50.017Z,4.28
2023-04-14T15:52:27.722Z,3.97
2023-04-14T15:54:55.475Z,2.22
2023-04-14T15:57:24.389Z,2.33
2023-04-14T15:59:53.482Z,2.25
2023-04-14T16:02:21.341Z,3.00
2023-04-14T16:04:49.229Z,6.20
2023-04-14T16:07:16.976Z,4.25
2023-04-14T16:09:44.684Z,4.80
2023-04-14T16:12:12.443Z,1.80
2023-04-14T16:14:40.229Z,3.25
2023-04-14T16:17:09.316Z,2.35
2023-04-14T16:19:37.125Z,2.58
2023-04-14T16:22:04.906Z,6.32
2023-04-14T16:24:32.737Z,3.67
2023-04-14T16:27:01.023Z,3.17
2023-04-14T16:29:28.760Z,1.88
2023-04-14T16:31:56.439Z,3.08
2023-04-14T16:34:25.592Z,2.45
2023-04-14T16:36:53.301Z,2.55
2023-04-14T16:39:22.208Z,1.27
2023-04-14T16:41:49.910Z,3.20
2023-04-14T16:44:17.548Z,2.58
2023-04-14T16:46:45.337Z,2.50
2023-04-14T16:49:14.704Z,4.43
2023-04-14T16:51:44.410Z,2.10
2023-04-14T16:54:12.141Z,2.85
2023-04-14T16:56:39.941Z,6.90
2023-04-14T16:59:08.878Z,5.63
2023-04-14T17:01:36.688Z,1.77
2023-04-14T17:04:05.221Z,5.13
2023-04-14T17:06:33.495Z,2.05
2023-04-14T17:09:03.818Z,3.60
2023-04-14T17:11:31.848Z,2.72
2023-04-14T17:13:59.769Z,4.32
2023-04-14T17:16:28.590Z,3.47
2023-04-14T17:18:58.133Z,3.08
2023-04-14T17:21:26.429Z,4.57
2023-04-14T17:23:54.600Z,2.95
2023-04-14T17:26:24.758Z,3.35
2023-04-14T17:28:52.714Z,3.38
2023-04-14T17:31:20.921Z,5.65
2023-04-14T17:33:48.705Z,6.75
2023-04-14T17:36:17.496Z,6.90
2023-04-14T17:38:45.884Z,7.57
2023-04-14T17:41:13.909Z,6.95
2023-04-14T17:43:42.977Z,2.42
2023-04-14T17:46:11.741Z,1.83
2023-04-14T17:48:40.360Z,2.22
2023-04-14T17:51:08.255Z,3.08
2023-04-14T17:53:36.069Z,2.72
2023-04-14T17:56:03.930Z,2.80
2023-04-14T17:58:32.476Z,1.65
2023-04-14T18:01:01.986Z,4.63
2023-04-14T18:03:29.801Z,2.10
2023-04-14T18:05:57.713Z,4.05
2023-04-14T18:08:25.885Z,6.90
2023-04-14T18:10:53.589Z,9.45
2023-04-14T18:13:21.297Z,4.37
2023-04-14T18:15:50.480Z,3.37
2023-04-14T18:18:20.036Z,2.40
2023-04-14T18:20:52.036Z,4.23
2023-04-14T18:23:19.830Z,3.87
2023-04-14T18:28:18.450Z,6.20
2023-04-14T18:30:53.465Z,2.90
2023-04-14T18:33:22.591Z,3.13
2023-04-14T18:35:51.733Z,6.33
2023-04-14T18:38:19.810Z,4.03
2023-04-14T18:40:48.440Z,2.57
2023-04-14T18:43:17.028Z,4.90
2023-04-14T18:45:48.555Z,2.10
2023-04-14T18:48:16.994Z,3.20
2023-04-14T18:50:46.637Z,3.50
2023-04-14T18:53:14.716Z,1.30
2023-04-14T18:55:45.738Z,3.67
2023-04-14T18:58:14.206Z,4.67
2023-04-14T19:00:43.151Z,2.93
2023-04-14T19:03:11.039Z,8.25
2023-04-14T19:05:39.535Z,2.90
2023-04-14T19:08:08.800Z,3.00
2023-04-14T19:10:37.330Z,3.03
2023-04-14T19:13:05.709Z,2.70
2023-04-14T19:15:33.484Z,3.77
2023-04-14T19:18:01.369Z,2.83
2023-04-14T19:20:29.173Z,6.67
2023-04-14T19:22:57.034Z,6.27
2023-04-14T19:25:26.066Z,6.47
2023-04-14T19:27:54.233Z,6.40
2023-04-14T19:30:21.960Z,3.80
2023-04-14T19:32:50.521Z,6.50
2023-04-14T19:35:18.527Z,5.25
2023-04-14T19:37:46.330Z,6.93
2023-04-14T19:40:14.412Z,4.80
2023-04-14T19:42:43.721Z,5.70
2023-04-14T19:45:12.006Z,3.85
2023-04-14T19:47:39.763Z,4.50
2023-04-14T19:50:08.224Z,6.27
2023-04-14T19:52:36.506Z,3.80
2023-04-14T19:55:05.481Z,7.93
2023-04-14T19:57:33.293Z,4.20
2023-04-14T20:00:02.462Z,8.47
2023-04-14T20:02:40.570Z,4.70
2023-04-14T20:05:08.980Z,7.03
2023-04-14T20:07:36.979Z,4.80
2023-04-14T20:10:05.235Z,3.53
2023-04-14T20:12:33.128Z,6.00
2023-04-14T20:15:03.429Z,5.67
2023-04-14T20:17:31.341Z,4.50
2023-04-14T20:19:59.380Z,6.73
2023-04-14T20:22:27.155Z,6.67
2023-04-14T20:24:54.962Z,4.67
2023-04-14T20:27:23.771Z,6.77
2023-04-14T20:29:51.494Z,5.70
2023-04-14T20:32:20.676Z,5.10
2023-04-14T20:34:48.516Z,8.57
2023-04-14T20:37:16.507Z,6.00
2023-04-14T20:39:45.118Z,4.27
2023-04-14T20:42:13.502Z,7.97
2023-04-14T20:44:41.517Z,6.20
2023-04-14T20:47:09.388Z,5.00
2023-04-14T20:49:38.500Z,6.90
2023-04-14T20:52:07.501Z,6.40
2023-04-14T20:54:35.455Z,5.30
2023-04-14T20:57:05.462Z,5.70
2023-04-14T20:59:33.493Z,3.80
2023-04-14T21:02:03.030Z,5.87
2023-04-14T21:04:31.057Z,5.00
2023-04-14T21:07:00.475Z,5.57
2023-04-14T21:09:28.696Z,4.90
2023-04-14T21:12:15.373Z,3.73
2023-04-14T21:15:41.707Z,6.80
2023-04-14T21:17:32.366Z,4.83
2023-04-14T21:20:00.245Z,5.47
2023-04-14T21:22:29.296Z,5.40
2023-04-14T21:24:57.013Z,4.10
2023-04-14T21:27:25.334Z,6.40
2023-04-14T21:29:53.404Z,3.70
2023-04-14T21:32:21.855Z,4.67
2023-04-14T21:34:49.745Z,4.87
2023-04-14T21:37:18.630Z,5.47
2023-04-14T21:39:47.864Z,5.30
2023-04-14T21:42:15.645Z,4.97
2023-04-14T21:44:43.844Z,3.93
2023-04-14T21:47:11.781Z,4.57
2023-04-14T21:49:39.507Z,7.57
2023-04-14T21:52:07.222Z,4.40
2023-04-14T21:54:35.280Z,4.23
2023-04-14T21:57:04.501Z,5.40
2023-04-14T21:59:32.255Z,3.00
2023-04-14T22:02:00.960Z,5.83
2023-04-14T22:04:36.285Z,5.73
2023-04-14T22:07:05.047Z,7.70
2023-04-14T22:09:33.636Z,4.00
2023-04-14T22:12:01.974Z,3.73
2023-04-14T22:14:31.054Z,3.63
2023-04-14T22:16:58.856Z,5.90
2023-04-14T22:19:28.729Z,4.77
2023-04-14T22:21:56.603Z,4.13
2023-04-14T22:24:25.194Z,5.17
2023-04-14T22:26:53.520Z,4.77
2023-04-14T22:29:21.287Z,3.47
2023-04-14T22:31:50.483Z,3.97
2023-04-14T22:34:18.158Z,5.37
2023-04-14T22:36:45.836Z,3.23
2023-04-14T22:39:13.659Z,2.93
2023-04-14T22:41:41.428Z,3.63
2023-04-14T22:44:09.212Z,4.57
2023-04-14T22:46:37.535Z,5.43
2023-04-14T22:49:07.327Z,3.70
2023-04-14T22:51:35.078Z,4.67
2023-04-14T22:54:02.800Z,4.97
2023-04-14T22:56:30.680Z,5.77
2023-04-14T22:58:58.713Z,2.80
2023-04-14T23:01:28.919Z,2.93
2023-04-14T23:03:56.897Z,2.77
2023-04-14T23:06:26.112Z,5.00
2023-04-14T23:08:53.848Z,4.17
2023-04-14T23:11:21.782Z,4.60
2023-04-14T23:13:50.108Z,6.20
2023-04-14T23:16:19.912Z,5.07
2023-04-14T23:18:49.612Z,3.13
2023-04-14T23:21:17.728Z,3.97
2023-04-14T23:23:46.867Z,4.63
2023-04-14T23:26:14.744Z,2.93
2023-04-14T23:28:42.554Z,6.80
2023-04-14T23:31:10.915Z,4.23
2023-04-14T23:33:38.688Z,3.20
2023-04-14T23:36:07.607Z,6.77
2023-04-14T23:38:35.408Z,4.70
2023-04-14T23:41:04.856Z,3.87
2023-04-14T23:43:32.704Z,5.57
2023-04-14T23:46:00.678Z,3.67
2023-04-14T23:48:28.448Z,3.43
2023-04-14T23:51:00.978Z,4.70
2023-04-14T23:53:43.611Z,4.80
2023-04-14T23:56:12.990Z,5.17
2023-04-14T23:58:40.706Z,6.17
